sensor_id;sensor_type;location;lat;lon;timestamp;P1;durP1;ratioP1;P2;durP2;ratioP2
18623;SDS011;9441;51.420;7.036;2024-03-23T00:53:48;21.53;;;5.43;;
18623;SDS011;9441;51.420;7.036;2024-03-23T00:54:50;28.33;;;5.70;;
18623;SDS011;9441;51.420;7.036;2024-03-23T00:55:51;25.50;;;5.60;;
18623;SDS011;9441;51.420;7.036;2024-03-23T00:56:52;24.90;;;5.43;;
18623;SDS011;9441;51.420;7.036;2024-03-23T00:57:54;24.67;;;5.70;;
18623;SDS011;9441;51.420;7.036;2024-03-23T00:58:55;20.33;;;4.97;;
18623;SDS011;9441;51.420;7.036;2024-03-23T00:59:56;22.73;;;4.97;;
18623;SDS011;9441;51.420;7.036;2024-03-23T01:00:57;26.10;;;5.37;;
18623;SDS011;9441;51.420;7.036;2024-03-23T01:01:59;21.40;;;5.50;;
18623;SDS011;9441;51.420;7.036;2024-03-23T01:03:00;23.03;;;4.93;;
18623;SDS011;9441;51.420;7.036;2024-03-23T01:04:01;24.33;;;4.93;;
18623;SDS011;9441;51.420;7.036;2024-03-23T01:05:03;24.43;;;4.90;;
18623;SDS011;9441;51.420;7.036;2024-03-23T01:06:06;20.20;;;4.53;;
18623;SDS011;9441;51.420;7.036;2024-03-23T01:07:07;23.77;;;4.90;;
18623;SDS011;9441;51.420;7.036;2024-03-23T01:08:09;24.20;;;4.87;;
18623;SDS011;9441;51.420;7.036;2024-03-23T01:09:10;25.63;;;4.47;;
18623;SDS011;9441;51.420;7.036;2024-03-23T01:10:12;26.43;;;4.60;;
18623;SDS011;9441;51.420;7.036;2024-03-23T01:11:13;22.17;;;5.67;;
18623;SDS011;9441;51.420;7.036;2024-03-23T01:12:14;28.57;;;4.30;;
18623;SDS011;9441;51.420;7.036;2024-03-23T01:13:15;23.33;;;4.93;;
18623;SDS011;9441;51.420;7.036;2024-03-23T01:14:21;30.10;;;4.73;;
18623;SDS011;9441;51.420;7.036;2024-03-23T01:15:22;19.57;;;3.93;;
18623;SDS011;9441;51.420;7.036;2024-03-23T01:16:24;28.57;;;4.77;;
18623;SDS011;9441;51.420;7.036;2024-03-23T01:17:25;21.73;;;4.40;;
18623;SDS011;9441;51.420;7.036;2024-03-23T01:18:27;15.80;;;4.43;;
18623;SDS011;9441;51.420;7.036;2024-03-23T01:19:29;20.53;;;4.00;;
18623;SDS011;9441;51.420;7.036;2024-03-23T01:20:30;28.67;;;4.93;;
18623;SDS011;9441;51.420;7.036;2024-03-23T01:21:31;22.10;;;4.17;;
18623;SDS011;9441;51.420;7.036;2024-03-23T01:22:33;28.17;;;4.30;;
18623;SDS011;9441;51.420;7.036;2024-03-23T01:23:36;18.53;;;4.77;;
18623;SDS011;9441;51.420;7.036;2024-03-23T01:24:37;19.90;;;4.30;;
18623;SDS011;9441;51.420;7.036;2024-03-23T01:25:38;21.33;;;4.37;;
18623;SDS011;9441;51.420;7.036;2024-03-23T01:26:39;21.27;;;4.13;;
18623;SDS011;9441;51.420;7.036;2024-03-23T01:27:41;22.10;;;4.20;;
18623;SDS011;9441;51.420;7.036;2024-03-23T01:28:42;19.83;;;4.70;;
18623;SDS011;9441;51.420;7.036;2024-03-23T01:29:43;17.43;;;4.03;;
18623;SDS011;9441;51.420;7.036;2024-03-23T01:30:44;26.87;;;4.47;;
18623;SDS011;9441;51.420;7.036;2024-03-23T01:31:46;22.40;;;4.60;;
18623;SDS011;9441;51.420;7.036;2024-03-23T01:32:47;17.50;;;4.10;;
18623;SDS011;9441;51.420;7.036;2024-03-23T01:33:48;19.83;;;4.73;;
18623;SDS011;9441;51.420;7.036;2024-03-23T01:34:50;15.80;;;3.90;;
18623;SDS011;9441;51.420;7.036;2024-03-23T01:35:51;18.07;;;3.97;;
18623;SDS011;9441;51.420;7.036;2024-03-23T01:36:52;15.40;;;3.93;;
18623;SDS011;9441;51.420;7.036;2024-03-23T01:37:53;19.30;;;3.87;;
18623;SDS011;9441;51.420;7.036;2024-03-23T01:38:56;19.80;;;3.63;;
18623;SDS011;9441;51.420;7.036;2024-03-23T01:39:57;12.93;;;3.83;;
18623;SDS011;9441;51.420;7.036;2024-03-23T01:40:58;18.77;;;3.40;;
18623;SDS011;9441;51.420;7.036;2024-03-23T01:41:59;14.20;;;3.13;;
18623;SDS011;9441;51.420;7.036;2024-03-23T01:43:02;19.57;;;3.70;;
18623;SDS011;9441;51.420;7.036;2024-03-23T01:44:05;16.20;;;3.53;;
18623;SDS011;9441;51.420;7.036;2024-03-23T01:45:08;16.17;;;3.20;;
18623;SDS011;9441;51.420;7.036;2024-03-23T01:46:10;17.23;;;3.07;;
18623;SDS011;9441;51.420;7.036;2024-03-23T01:47:12;13.33;;;3.30;;
18623;SDS011;9441;51.420;7.036;2024-03-23T01:48:13;14.87;;;3.40;;
18623;SDS011;9441;51.420;7.036;2024-03-23T01:49:14;18.70;;;3.07;;
18623;SDS011;9441;51.420;7.036;2024-03-23T01:50:15;17.73;;;3.00;;
18623;SDS011;9441;51.420;7.036;2024-03-23T01:51:17;11.80;;;2.47;;
18623;SDS011;9441;51.420;7.036;2024-03-23T01:52:18;15.20;;;2.60;;
18623;SDS011;9441;51.420;7.036;2024-03-23T01:53:19;11.57;;;2.63;;
18623;SDS011;9441;51.420;7.036;2024-03-23T01:54:24;9.17;;;2.67;;
18623;SDS011;9441;51.420;7.036;2024-03-23T01:55:26;12.77;;;2.60;;
18623;SDS011;9441;51.420;7.036;2024-03-23T01:56:27;10.40;;;2.67;;
18623;SDS011;9441;51.420;7.036;2024-03-23T01:57:29;12.33;;;2.40;;
18623;SDS011;9441;51.420;7.036;2024-03-23T01:58:31;9.90;;;2.77;;
18623;SDS011;9441;51.420;7.036;2024-03-23T01:59:32;11.80;;;2.40;;
18623;SDS011;9441;51.420;7.036;2024-03-23T02:00:33;17.33;;;2.67;;
18623;SDS011;9441;51.420;7.036;2024-03-23T02:01:35;12.90;;;2.80;;
18623;SDS011;9441;51.420;7.036;2024-03-23T02:02:40;11.97;;;2.47;;
18623;SDS011;9441;51.420;7.036;2024-03-23T02:03:42;12.53;;;2.57;;
18623;SDS011;9441;51.420;7.036;2024-03-23T02:04:43;16.80;;;2.43;;
18623;SDS011;9441;51.420;7.036;2024-03-23T02:05:44;15.40;;;2.70;;
18623;SDS011;9441;51.420;7.036;2024-03-23T02:06:46;14.47;;;2.77;;
18623;SDS011;9441;51.420;7.036;2024-03-23T02:07:47;15.47;;;2.67;;
18623;SDS011;9441;51.420;7.036;2024-03-23T02:08:48;14.70;;;3.07;;
18623;SDS011;9441;51.420;7.036;2024-03-23T02:09:52;14.10;;;2.73;;
18623;SDS011;9441;51.420;7.036;2024-03-23T02:10:53;18.40;;;3.00;;
18623;SDS011;9441;51.420;7.036;2024-03-23T02:11:54;10.00;;;2.87;;
18623;SDS011;9441;51.420;7.036;2024-03-23T02:12:56;13.13;;;2.57;;
18623;SDS011;9441;51.420;7.036;2024-03-23T02:13:57;13.37;;;2.80;;
18623;SDS011;9441;51.420;7.036;2024-03-23T02:14:58;10.93;;;2.63;;
18623;SDS011;9441;51.420;7.036;2024-03-23T02:16:00;18.30;;;2.93;;
18623;SDS011;9441;51.420;7.036;2024-03-23T02:17:02;10.70;;;2.83;;
18623;SDS011;9441;51.420;7.036;2024-03-23T02:18:03;15.20;;;2.30;;
18623;SDS011;9441;51.420;7.036;2024-03-23T02:19:04;13.83;;;2.63;;
18623;SDS011;9441;51.420;7.036;2024-03-23T02:20:05;14.87;;;2.83;;
18623;SDS011;9441;51.420;7.036;2024-03-23T02:21:07;21.23;;;2.70;;
18623;SDS011;9441;51.420;7.036;2024-03-23T02:22:08;16.70;;;2.60;;
18623;SDS011;9441;51.420;7.036;2024-03-23T02:23:15;16.30;;;2.80;;
18623;SDS011;9441;51.420;7.036;2024-03-23T02:24:16;14.80;;;2.60;;
18623;SDS011;9441;51.420;7.036;2024-03-23T02:25:18;19.53;;;2.90;;
18623;SDS011;9441;51.420;7.036;2024-03-23T02:26:19;13.60;;;2.77;;
18623;SDS011;9441;51.420;7.036;2024-03-23T02:27:20;13.77;;;2.47;;
18623;SDS011;9441;51.420;7.036;2024-03-23T02:28:21;9.50;;;2.33;;
18623;SDS011;9441;51.420;7.036;2024-03-23T02:29:24;10.30;;;2.37;;
18623;SDS011;9441;51.420;7.036;2024-03-23T02:30:25;15.03;;;2.50;;
18623;SDS011;9441;51.420;7.036;2024-03-23T02:31:26;11.30;;;2.53;;
18623;SDS011;9441;51.420;7.036;2024-03-23T02:32:28;15.70;;;2.43;;
18623;SDS011;9441;51.420;7.036;2024-03-23T02:33:30;16.77;;;2.90;;
18623;SDS011;9441;51.420;7.036;2024-03-23T02:34:32;14.20;;;2.37;;
18623;SDS011;9441;51.420;7.036;2024-03-23T02:35:33;12.80;;;2.40;;
18623;SDS011;9441;51.420;7.036;2024-03-23T02:36:34;16.07;;;2.97;;
18623;SDS011;9441;51.420;7.036;2024-03-23T02:37:36;11.90;;;2.40;;
18623;SDS011;9441;51.420;7.036;2024-03-23T02:38:38;14.47;;;2.43;;
18623;SDS011;9441;51.420;7.036;2024-03-23T02:39:39;15.13;;;2.83;;
18623;SDS011;9441;51.420;7.036;2024-03-23T02:40:40;14.40;;;2.80;;
18623;SDS011;9441;51.420;7.036;2024-03-23T02:41:42;13.90;;;2.80;;
18623;SDS011;9441;51.420;7.036;2024-03-23T02:42:43;16.20;;;2.90;;
18623;SDS011;9441;51.420;7.036;2024-03-23T02:43:44;12.87;;;2.77;;
18623;SDS011;9441;51.420;7.036;2024-03-23T02:44:46;13.17;;;2.83;;
18623;SDS011;9441;51.420;7.036;2024-03-23T02:45:48;12.93;;;2.60;;
18623;SDS011;9441;51.420;7.036;2024-03-23T02:46:49;5.47;;;2.37;;
18623;SDS011;9441;51.420;7.036;2024-03-23T02:47:50;17.07;;;2.70;;
18623;SDS011;9441;51.420;7.036;2024-03-23T02:48:52;10.87;;;2.50;;
18623;SDS011;9441;51.420;7.036;2024-03-23T02:49:54;6.27;;;2.37;;
18623;SDS011;9441;51.420;7.036;2024-03-23T02:50:55;11.53;;;2.33;;
18623;SDS011;9441;51.420;7.036;2024-03-23T02:51:56;13.80;;;2.60;;
18623;SDS011;9441;51.420;7.036;2024-03-23T02:52:57;10.53;;;2.80;;
18623;SDS011;9441;51.420;7.036;2024-03-23T02:54:01;9.60;;;2.73;;
18623;SDS011;9441;51.420;7.036;2024-03-23T02:55:02;16.50;;;2.80;;
18623;SDS011;9441;51.420;7.036;2024-03-23T02:56:03;21.30;;;3.03;;
18623;SDS011;9441;51.420;7.036;2024-03-23T02:57:05;14.33;;;2.90;;
18623;SDS011;9441;51.420;7.036;2024-03-23T02:58:07;11.23;;;2.50;;
18623;SDS011;9441;51.420;7.036;2024-03-23T02:59:08;9.90;;;2.10;;
18623;SDS011;9441;51.420;7.036;2024-03-23T03:00:09;13.23;;;2.47;;
18623;SDS011;9441;51.420;7.036;2024-03-23T03:01:11;12.60;;;2.40;;
18623;SDS011;9441;51.420;7.036;2024-03-23T03:02:13;8.20;;;2.13;;
18623;SDS011;9441;51.420;7.036;2024-03-23T03:03:16;16.40;;;2.67;;
18623;SDS011;9441;51.420;7.036;2024-03-23T03:04:18;11.67;;;2.60;;
18623;SDS011;9441;51.420;7.036;2024-03-23T03:05:20;13.93;;;2.47;;
18623;SDS011;9441;51.420;7.036;2024-03-23T03:06:23;14.63;;;2.80;;
18623;SDS011;9441;51.420;7.036;2024-03-23T03:07:25;12.87;;;2.40;;
18623;SDS011;9441;51.420;7.036;2024-03-23T03:08:26;12.60;;;2.70;;
18623;SDS011;9441;51.420;7.036;2024-03-23T03:09:29;19.50;;;2.83;;
18623;SDS011;9441;51.420;7.036;2024-03-23T03:10:30;12.27;;;2.80;;
18623;SDS011;9441;51.420;7.036;2024-03-23T03:11:35;11.37;;;2.73;;
18623;SDS011;9441;51.420;7.036;2024-03-23T03:12:36;11.77;;;2.23;;
18623;SDS011;9441;51.420;7.036;2024-03-23T03:13:38;11.97;;;2.73;;
18623;SDS011;9441;51.420;7.036;2024-03-23T03:14:39;14.30;;;2.70;;
18623;SDS011;9441;51.420;7.036;2024-03-23T03:15:40;13.47;;;2.80;;
18623;SDS011;9441;51.420;7.036;2024-03-23T03:16:41;13.63;;;2.60;;
18623;SDS011;9441;51.420;7.036;2024-03-23T03:17:43;13.60;;;2.70;;
18623;SDS011;9441;51.420;7.036;2024-03-23T03:18:45;17.97;;;3.00;;
18623;SDS011;9441;51.420;7.036;2024-03-23T03:19:46;14.77;;;2.90;;
18623;SDS011;9441;51.420;7.036;2024-03-23T03:20:48;14.13;;;2.70;;
18623;SDS011;9441;51.420;7.036;2024-03-23T03:21:50;21.10;;;3.23;;
18623;SDS011;9441;51.420;7.036;2024-03-23T03:22:51;22.67;;;3.00;;
18623;SDS011;9441;51.420;7.036;2024-03-23T03:23:54;16.33;;;2.87;;
18623;SDS011;9441;51.420;7.036;2024-03-23T03:24:57;19.80;;;2.87;;
18623;SDS011;9441;51.420;7.036;2024-03-23T03:26:00;10.73;;;2.50;;
18623;SDS011;9441;51.420;7.036;2024-03-23T03:27:01;17.43;;;2.77;;
18623;SDS011;9441;51.420;7.036;2024-03-23T03:28:04;14.63;;;3.00;;
18623;SDS011;9441;51.420;7.036;2024-03-23T03:29:06;14.00;;;2.73;;
18623;SDS011;9441;51.420;7.036;2024-03-23T03:30:07;23.60;;;3.20;;
18623;SDS011;9441;51.420;7.036;2024-03-23T03:31:09;20.50;;;3.20;;
18623;SDS011;9441;51.420;7.036;2024-03-23T03:32:10;13.83;;;3.17;;
18623;SDS011;9441;51.420;7.036;2024-03-23T03:33:12;18.57;;;3.10;;
18623;SDS011;9441;51.420;7.036;2024-03-23T03:34:13;13.73;;;3.10;;
18623;SDS011;9441;51.420;7.036;2024-03-23T03:35:14;9.27;;;2.63;;
18623;SDS011;9441;51.420;7.036;2024-03-23T03:36:15;12.70;;;2.73;;
18623;SDS011;9441;51.420;7.036;2024-03-23T03:37:17;13.17;;;2.57;;
18623;SDS011;9441;51.420;7.036;2024-03-23T03:38:18;15.00;;;2.63;;
18623;SDS011;9441;51.420;7.036;2024-03-23T03:39:19;15.40;;;2.83;;
18623;SDS011;9441;51.420;7.036;2024-03-23T03:40:24;15.37;;;2.73;;
18623;SDS011;9441;51.420;7.036;2024-03-23T03:41:25;15.47;;;2.50;;
18623;SDS011;9441;51.420;7.036;2024-03-23T03:42:26;16.13;;;2.70;;
18623;SDS011;9441;51.420;7.036;2024-03-23T03:43:27;17.47;;;3.03;;
18623;SDS011;9441;51.420;7.036;2024-03-23T03:44:29;13.60;;;2.80;;
18623;SDS011;9441;51.420;7.036;2024-03-23T03:45:30;15.50;;;2.77;;
18623;SDS011;9441;51.420;7.036;2024-03-23T03:46:31;14.83;;;3.03;;
18623;SDS011;9441;51.420;7.036;2024-03-23T03:47:33;12.10;;;2.80;;
18623;SDS011;9441;51.420;7.036;2024-03-23T03:48:34;15.10;;;2.73;;
18623;SDS011;9441;51.420;7.036;2024-03-23T03:49:35;10.33;;;2.53;;
18623;SDS011;9441;51.420;7.036;2024-03-23T03:50:38;14.60;;;2.63;;
18623;SDS011;9441;51.420;7.036;2024-03-23T03:51:39;21.77;;;3.03;;
18623;SDS011;9441;51.420;7.036;2024-03-23T03:52:40;15.47;;;2.97;;
18623;SDS011;9441;51.420;7.036;2024-03-23T03:53:42;14.53;;;3.17;;
18623;SDS011;9441;51.420;7.036;2024-03-23T03:54:43;17.77;;;3.23;;
18623;SDS011;9441;51.420;7.036;2024-03-23T03:55:45;19.37;;;3.17;;
18623;SDS011;9441;51.420;7.036;2024-03-23T03:56:47;14.33;;;2.73;;
18623;SDS011;9441;51.420;7.036;2024-03-23T03:57:48;19.23;;;3.23;;
18623;SDS011;9441;51.420;7.036;2024-03-23T03:58:49;16.27;;;3.13;;
18623;SDS011;9441;51.420;7.036;2024-03-23T03:59:51;16.37;;;3.20;;
18623;SDS011;9441;51.420;7.036;2024-03-23T04:00:52;11.90;;;2.73;;
18623;SDS011;9441;51.420;7.036;2024-03-23T04:01:53;18.33;;;3.13;;
18623;SDS011;9441;51.420;7.036;2024-03-23T04:02:55;15.50;;;3.73;;
18623;SDS011;9441;51.420;7.036;2024-03-23T04:03:56;16.50;;;3.43;;
18623;SDS011;9441;51.420;7.036;2024-03-23T04:04:57;20.87;;;3.30;;
18623;SDS011;9441;51.420;7.036;2024-03-23T04:05:58;15.90;;;3.60;;
18623;SDS011;9441;51.420;7.036;2024-03-23T04:07:00;14.43;;;3.30;;
18623;SDS011;9441;51.420;7.036;2024-03-23T04:08:02;11.03;;;3.50;;
18623;SDS011;9441;51.420;7.036;2024-03-23T04:09:04;13.63;;;3.17;;
18623;SDS011;9441;51.420;7.036;2024-03-23T04:10:07;22.90;;;4.20;;
18623;SDS011;9441;51.420;7.036;2024-03-23T04:11:09;16.90;;;3.93;;
18623;SDS011;9441;51.420;7.036;2024-03-23T04:12:11;20.30;;;4.10;;
18623;SDS011;9441;51.420;7.036;2024-03-23T04:13:12;17.60;;;4.17;;
18623;SDS011;9441;51.420;7.036;2024-03-23T04:14:14;16.50;;;4.33;;
18623;SDS011;9441;51.420;7.036;2024-03-23T04:15:15;17.57;;;4.13;;
18623;SDS011;9441;51.420;7.036;2024-03-23T04:16:24;23.77;;;4.73;;
18623;SDS011;9441;51.420;7.036;2024-03-23T04:17:26;15.20;;;4.30;;
18623;SDS011;9441;51.420;7.036;2024-03-23T04:18:31;17.47;;;4.90;;
18623;SDS011;9441;51.420;7.036;2024-03-23T04:19:32;16.67;;;4.00;;
18623;SDS011;9441;51.420;7.036;2024-03-23T04:20:34;20.50;;;4.33;;
18623;SDS011;9441;51.420;7.036;2024-03-23T04:21:37;21.73;;;4.20;;
18623;SDS011;9441;51.420;7.036;2024-03-23T04:22:38;19.60;;;4.60;;
18623;SDS011;9441;51.420;7.036;2024-03-23T04:23:39;21.30;;;4.10;;
18623;SDS011;9441;51.420;7.036;2024-03-23T04:24:40;16.63;;;4.47;;
18623;SDS011;9441;51.420;7.036;2024-03-23T04:25:42;18.30;;;4.10;;
18623;SDS011;9441;51.420;7.036;2024-03-23T04:26:45;15.93;;;4.60;;
18623;SDS011;9441;51.420;7.036;2024-03-23T04:27:46;22.10;;;4.20;;
18623;SDS011;9441;51.420;7.036;2024-03-23T04:28:48;18.00;;;4.47;;
18623;SDS011;9441;51.420;7.036;2024-03-23T04:29:49;22.33;;;4.43;;
18623;SDS011;9441;51.420;7.036;2024-03-23T04:30:50;20.70;;;4.30;;
18623;SDS011;9441;51.420;7.036;2024-03-23T04:31:51;15.93;;;4.33;;
18623;SDS011;9441;51.420;7.036;2024-03-23T04:32:53;26.70;;;4.40;;
18623;SDS011;9441;51.420;7.036;2024-03-23T04:33:54;17.93;;;4.60;;
18623;SDS011;9441;51.420;7.036;2024-03-23T04:34:55;16.47;;;3.97;;
18623;SDS011;9441;51.420;7.036;2024-03-23T04:35:56;19.93;;;4.50;;
18623;SDS011;9441;51.420;7.036;2024-03-23T04:36:58;17.03;;;4.57;;
18623;SDS011;9441;51.420;7.036;2024-03-23T04:37:59;15.63;;;4.17;;
18623;SDS011;9441;51.420;7.036;2024-03-23T04:39:01;20.60;;;3.97;;
18623;SDS011;9441;51.420;7.036;2024-03-23T04:40:03;16.37;;;4.00;;
18623;SDS011;9441;51.420;7.036;2024-03-23T04:41:05;15.63;;;3.90;;
18623;SDS011;9441;51.420;7.036;2024-03-23T04:42:08;19.07;;;4.73;;
18623;SDS011;9441;51.420;7.036;2024-03-23T04:43:09;21.67;;;4.30;;
18623;SDS011;9441;51.420;7.036;2024-03-23T04:44:10;16.23;;;4.17;;
18623;SDS011;9441;51.420;7.036;2024-03-23T04:45:13;16.83;;;3.80;;
18623;SDS011;9441;51.420;7.036;2024-03-23T04:46:14;19.00;;;4.60;;
18623;SDS011;9441;51.420;7.036;2024-03-23T04:47:16;23.30;;;4.67;;
18623;SDS011;9441;51.420;7.036;2024-03-23T04:48:19;20.70;;;4.43;;
18623;SDS011;9441;51.420;7.036;2024-03-23T04:49:21;15.20;;;4.37;;
18623;SDS011;9441;51.420;7.036;2024-03-23T04:50:23;17.00;;;4.13;;
18623;SDS011;9441;51.420;7.036;2024-03-23T04:51:24;22.33;;;4.50;;
18623;SDS011;9441;51.420;7.036;2024-03-23T04:52:27;23.80;;;4.40;;
18623;SDS011;9441;51.420;7.036;2024-03-23T04:53:28;24.03;;;4.60;;
18623;SDS011;9441;51.420;7.036;2024-03-23T04:54:30;14.63;;;4.00;;
18623;SDS011;9441;51.420;7.036;2024-03-23T04:55:32;18.97;;;4.70;;
18623;SDS011;9441;51.420;7.036;2024-03-23T04:56:33;18.63;;;4.80;;
18623;SDS011;9441;51.420;7.036;2024-03-23T04:57:38;16.60;;;4.77;;
18623;SDS011;9441;51.420;7.036;2024-03-23T04:58:39;21.27;;;4.40;;
18623;SDS011;9441;51.420;7.036;2024-03-23T04:59:40;21.30;;;4.97;;
18623;SDS011;9441;51.420;7.036;2024-03-23T05:00:41;18.27;;;4.60;;
18623;SDS011;9441;51.420;7.036;2024-03-23T05:01:43;16.27;;;4.13;;
18623;SDS011;9441;51.420;7.036;2024-03-23T05:02:44;23.03;;;5.17;;
18623;SDS011;9441;51.420;7.036;2024-03-23T05:03:45;22.33;;;5.10;;
18623;SDS011;9441;51.420;7.036;2024-03-23T05:04:46;20.90;;;4.70;;
18623;SDS011;9441;51.420;7.036;2024-03-23T05:05:48;15.57;;;4.60;;
18623;SDS011;9441;51.420;7.036;2024-03-23T05:06:50;20.20;;;5.10;;
18623;SDS011;9441;51.420;7.036;2024-03-23T05:07:51;15.47;;;4.73;;
18623;SDS011;9441;51.420;7.036;2024-03-23T05:08:52;16.13;;;4.57;;
18623;SDS011;9441;51.420;7.036;2024-03-23T05:09:54;23.50;;;5.17;;
18623;SDS011;9441;51.420;7.036;2024-03-23T05:10:55;18.77;;;4.50;;
18623;SDS011;9441;51.420;7.036;2024-03-23T05:11:56;18.30;;;5.07;;
18623;SDS011;9441;51.420;7.036;2024-03-23T05:12:58;17.63;;;4.77;;
18623;SDS011;9441;51.420;7.036;2024-03-23T05:14:00;24.50;;;5.50;;
18623;SDS011;9441;51.420;7.036;2024-03-23T05:15:03;14.60;;;4.90;;
18623;SDS011;9441;51.420;7.036;2024-03-23T05:16:05;21.83;;;5.47;;
18623;SDS011;9441;51.420;7.036;2024-03-23T05:17:06;19.03;;;5.70;;
18623;SDS011;9441;51.420;7.036;2024-03-23T05:18:08;18.73;;;5.20;;
18623;SDS011;9441;51.420;7.036;2024-03-23T05:19:09;22.77;;;5.57;;
18623;SDS011;9441;51.420;7.036;2024-03-23T05:20:10;16.70;;;4.80;;
18623;SDS011;9441;51.420;7.036;2024-03-23T05:21:12;15.33;;;5.50;;
18623;SDS011;9441;51.420;7.036;2024-03-23T05:22:13;20.53;;;5.87;;
18623;SDS011;9441;51.420;7.036;2024-03-23T05:23:15;22.47;;;5.87;;
18623;SDS011;9441;51.420;7.036;2024-03-23T05:24:16;18.03;;;5.73;;
18623;SDS011;9441;51.420;7.036;2024-03-23T05:25:18;24.07;;;6.67;;
18623;SDS011;9441;51.420;7.036;2024-03-23T05:26:19;22.33;;;6.87;;
18623;SDS011;9441;51.420;7.036;2024-03-23T05:27:20;25.43;;;7.13;;
18623;SDS011;9441;51.420;7.036;2024-03-23T05:28:22;21.30;;;7.30;;
18623;SDS011;9441;51.420;7.036;2024-03-23T05:29:24;18.70;;;6.97;;
18623;SDS011;9441;51.420;7.036;2024-03-23T05:30:25;21.50;;;7.23;;
18623;SDS011;9441;51.420;7.036;2024-03-23T05:31:27;26.43;;;6.57;;
18623;SDS011;9441;51.420;7.036;2024-03-23T05:32:29;21.40;;;7.20;;
18623;SDS011;9441;51.420;7.036;2024-03-23T05:33:31;25.93;;;7.37;;
18623;SDS011;9441;51.420;7.036;2024-03-23T05:34:32;16.23;;;6.33;;
18623;SDS011;9441;51.420;7.036;2024-03-23T05:35:33;21.40;;;6.97;;
18623;SDS011;9441;51.420;7.036;2024-03-23T05:36:34;22.30;;;6.67;;
18623;SDS011;9441;51.420;7.036;2024-03-23T05:37:37;17.03;;;6.90;;
18623;SDS011;9441;51.420;7.036;2024-03-23T05:38:38;24.10;;;7.10;;
18623;SDS011;9441;51.420;7.036;2024-03-23T05:39:39;18.73;;;6.97;;
18623;SDS011;9441;51.420;7.036;2024-03-23T05:40:41;26.87;;;7.23;;
18623;SDS011;9441;51.420;7.036;2024-03-23T05:41:53;25.03;;;6.73;;
18623;SDS011;9441;51.420;7.036;2024-03-23T05:42:54;21.60;;;7.03;;
18623;SDS011;9441;51.420;7.036;2024-03-23T05:43:57;23.50;;;6.93;;
18623;SDS011;9441;51.420;7.036;2024-03-23T05:44:58;20.50;;;7.33;;
18623;SDS011;9441;51.420;7.036;2024-03-23T05:45:59;20.97;;;7.37;;
18623;SDS011;9441;51.420;7.036;2024-03-23T05:47:01;23.17;;;6.50;;
18623;SDS011;9441;51.420;7.036;2024-03-23T05:48:02;24.53;;;7.10;;
18623;SDS011;9441;51.420;7.036;2024-03-23T05:49:05;21.63;;;7.47;;
18623;SDS011;9441;51.420;7.036;2024-03-23T05:50:06;26.53;;;7.23;;
18623;SDS011;9441;51.420;7.036;2024-03-23T05:51:10;27.80;;;7.10;;
18623;SDS011;9441;51.420;7.036;2024-03-23T05:52:12;23.97;;;7.30;;
18623;SDS011;9441;51.420;7.036;2024-03-23T05:53:15;21.53;;;7.17;;
18623;SDS011;9441;51.420;7.036;2024-03-23T05:54:16;23.77;;;8.07;;
18623;SDS011;9441;51.420;7.036;2024-03-23T05:55:17;24.53;;;8.20;;
18623;SDS011;9441;51.420;7.036;2024-03-23T05:56:19;26.60;;;8.57;;
18623;SDS011;9441;51.420;7.036;2024-03-23T05:57:21;30.03;;;8.63;;
18623;SDS011;9441;51.420;7.036;2024-03-23T05:58:22;34.17;;;9.00;;
18623;SDS011;9441;51.420;7.036;2024-03-23T05:59:25;27.67;;;10.63;;
18623;SDS011;9441;51.420;7.036;2024-03-23T06:00:27;26.97;;;9.80;;
18623;SDS011;9441;51.420;7.036;2024-03-23T06:01:28;31.87;;;10.80;;
18623;SDS011;9441;51.420;7.036;2024-03-23T06:02:29;28.53;;;10.50;;
18623;SDS011;9441;51.420;7.036;2024-03-23T06:03:30;28.67;;;11.47;;
18623;SDS011;9441;51.420;7.036;2024-03-23T06:04:32;34.33;;;11.53;;
18623;SDS011;9441;51.420;7.036;2024-03-23T06:05:33;34.47;;;11.07;;
18623;SDS011;9441;51.420;7.036;2024-03-23T06:06:34;36.93;;;11.20;;
18623;SDS011;9441;51.420;7.036;2024-03-23T06:07:35;33.00;;;11.67;;
18623;SDS011;9441;51.420;7.036;2024-03-23T06:08:37;27.67;;;12.47;;
18623;SDS011;9441;51.420;7.036;2024-03-23T06:09:38;33.90;;;13.37;;
18623;SDS011;9441;51.420;7.036;2024-03-23T06:10:40;29.57;;;13.23;;
18623;SDS011;9441;51.420;7.036;2024-03-23T06:11:41;37.57;;;12.73;;
18623;SDS011;9441;51.420;7.036;2024-03-23T06:12:43;32.77;;;13.60;;
18623;SDS011;9441;51.420;7.036;2024-03-23T06:13:44;39.63;;;13.63;;
18623;SDS011;9441;51.420;7.036;2024-03-23T06:14:46;35.50;;;14.60;;
18623;SDS011;9441;51.420;7.036;2024-03-23T06:15:50;35.60;;;15.33;;
18623;SDS011;9441;51.420;7.036;2024-03-23T06:16:51;44.77;;;14.70;;
18623;SDS011;9441;51.420;7.036;2024-03-23T06:17:52;41.53;;;15.20;;
18623;SDS011;9441;51.420;7.036;2024-03-23T06:18:54;39.70;;;14.70;;
18623;SDS011;9441;51.420;7.036;2024-03-23T06:19:55;33.93;;;14.80;;
18623;SDS011;9441;51.420;7.036;2024-03-23T06:20:56;39.23;;;14.80;;
18623;SDS011;9441;51.420;7.036;2024-03-23T06:21:57;36.37;;;13.93;;
18623;SDS011;9441;51.420;7.036;2024-03-23T06:22:59;37.80;;;14.40;;
18623;SDS011;9441;51.420;7.036;2024-03-23T06:24:00;40.07;;;15.10;;
18623;SDS011;9441;51.420;7.036;2024-03-23T06:25:01;29.70;;;13.57;;
18623;SDS011;9441;51.420;7.036;2024-03-23T06:26:03;39.17;;;12.63;;
18623;SDS011;9441;51.420;7.036;2024-03-23T06:27:05;40.07;;;13.20;;
18623;SDS011;9441;51.420;7.036;2024-03-23T06:28:06;31.37;;;12.50;;
18623;SDS011;9441;51.420;7.036;2024-03-23T06:29:07;33.47;;;12.70;;
18623;SDS011;9441;51.420;7.036;2024-03-23T06:30:10;37.20;;;13.80;;
18623;SDS011;9441;51.420;7.036;2024-03-23T06:31:13;35.97;;;12.67;;
18623;SDS011;9441;51.420;7.036;2024-03-23T06:32:14;42.00;;;13.07;;
18623;SDS011;9441;51.420;7.036;2024-03-23T06:33:15;39.80;;;14.50;;
18623;SDS011;9441;51.420;7.036;2024-03-23T06:34:17;40.73;;;15.37;;
18623;SDS011;9441;51.420;7.036;2024-03-23T06:35:18;32.17;;;14.90;;
18623;SDS011;9441;51.420;7.036;2024-03-23T06:36:20;35.90;;;14.27;;
18623;SDS011;9441;51.420;7.036;2024-03-23T06:37:21;39.87;;;15.30;;
18623;SDS011;9441;51.420;7.036;2024-03-23T06:38:23;47.50;;;16.47;;
18623;SDS011;9441;51.420;7.036;2024-03-23T06:39:24;44.50;;;17.20;;
18623;SDS011;9441;51.420;7.036;2024-03-23T06:40:25;41.90;;;17.57;;
18623;SDS011;9441;51.420;7.036;2024-03-23T06:41:27;44.50;;;16.13;;
18623;SDS011;9441;51.420;7.036;2024-03-23T06:42:29;40.70;;;16.73;;
18623;SDS011;9441;51.420;7.036;2024-03-23T06:43:30;41.90;;;17.33;;
18623;SDS011;9441;51.420;7.036;2024-03-23T06:44:31;41.53;;;17.93;;
18623;SDS011;9441;51.420;7.036;2024-03-23T06:45:34;38.00;;;17.67;;
18623;SDS011;9441;51.420;7.036;2024-03-23T06:46:37;45.73;;;18.87;;
18623;SDS011;9441;51.420;7.036;2024-03-23T06:47:38;48.37;;;19.43;;
18623;SDS011;9441;51.420;7.036;2024-03-23T06:48:39;41.87;;;17.90;;
18623;SDS011;9441;51.420;7.036;2024-03-23T06:49:41;43.40;;;18.83;;
18623;SDS011;9441;51.420;7.036;2024-03-23T06:50:42;47.27;;;19.00;;
18623;SDS011;9441;51.420;7.036;2024-03-23T06:51:44;39.80;;;19.13;;
18623;SDS011;9441;51.420;7.036;2024-03-23T06:52:45;45.90;;;19.87;;
18623;SDS011;9441;51.420;7.036;2024-03-23T06:53:49;44.37;;;19.50;;
18623;SDS011;9441;51.420;7.036;2024-03-23T06:54:50;47.37;;;19.60;;
18623;SDS011;9441;51.420;7.036;2024-03-23T06:55:51;44.67;;;20.27;;
18623;SDS011;9441;51.420;7.036;2024-03-23T06:56:53;47.80;;;20.67;;
18623;SDS011;9441;51.420;7.036;2024-03-23T06:57:55;51.37;;;20.90;;
18623;SDS011;9441;51.420;7.036;2024-03-23T06:58:56;47.93;;;20.13;;
18623;SDS011;9441;51.420;7.036;2024-03-23T06:59:57;49.50;;;22.07;;
18623;SDS011;9441;51.420;7.036;2024-03-23T07:00:59;52.60;;;20.47;;
18623;SDS011;9441;51.420;7.036;2024-03-23T07:02:02;54.00;;;21.63;;
18623;SDS011;9441;51.420;7.036;2024-03-23T07:03:03;51.93;;;20.80;;
18623;SDS011;9441;51.420;7.036;2024-03-23T07:04:05;50.80;;;20.90;;